createdAt,value
2018-11-12T00:00:41.516Z,86.20
2018-11-12T00:03:08.420Z,86.30
2018-11-12T00:05:35.410Z,86.40
2018-11-12T00:08:02.364Z,86.30
2018-11-12T00:10:29.314Z,86.60
2018-11-12T00:12:56.281Z,86.70
2018-11-12T00:15:23.227Z,86.60
2018-11-12T00:17:50.167Z,86.80
2018-11-12T00:20:17.681Z,87.00
2018-11-12T00:22:45.343Z,87.20
2018-11-12T00:25:12.287Z,87.10
2018-11-12T00:27:39.671Z,87.40
2018-11-12T00:30:11.926Z,87.50
2018-11-12T00:32:38.899Z,87.60
2018-11-12T00:35:06.843Z,87.70
2018-11-12T00:37:33.788Z,88.00
2018-11-12T00:40:00.710Z,88.30
2018-11-12T00:42:27.694Z,88.80
2018-11-12T00:44:54.643Z,88.90
2018-11-12T00:47:21.610Z,89.10
2018-11-12T00:49:48.563Z,88.50
2018-11-12T00:52:15.506Z,87.90
2018-11-12T00:54:42.453Z,87.90
2018-11-12T00:57:09.420Z,87.60
2018-11-12T00:59:36.805Z,87.30
2018-11-12T01:02:04.262Z,87.00
2018-11-12T01:04:31.227Z,87.10
2018-11-12T01:06:58.179Z,86.60
2018-11-12T01:09:25.122Z,86.60
2018-11-12T01:11:52.080Z,86.80
2018-11-12T01:14:19.055Z,86.60
2018-11-12T01:16:46.026Z,86.70
2018-11-12T01:19:13.253Z,86.60
2018-11-12T01:21:40.196Z,86.50
2018-11-12T01:24:07.158Z,86.40
2018-11-12T01:26:34.167Z,86.30
2018-11-12T01:29:01.150Z,86.20
2018-11-12T01:31:28.111Z,86.40
2018-11-12T01:33:55.139Z,86.60
2018-11-12T01:36:22.093Z,86.70
2018-11-12T01:38:49.079Z,86.80
2018-11-12T01:41:16.029Z,87.10
2018-11-12T01:43:42.974Z,87.10
2018-11-12T01:46:09.949Z,87.20
2018-11-12T01:48:36.934Z,87.60
2018-11-12T01:51:04.011Z,87.50
2018-11-12T01:53:30.957Z,87.60
2018-11-12T01:55:57.938Z,87.50
2018-11-12T01:58:24.890Z,87.60
2018-11-12T02:00:51.979Z,87.80
2018-11-12T02:03:18.936Z,87.50
2018-11-12T02:05:45.890Z,86.50
2018-11-12T02:08:12.844Z,86.20
2018-11-12T02:10:39.811Z,85.80
2018-11-12T02:13:06.764Z,86.00
2018-11-12T02:15:33.743Z,85.60
2018-11-12T02:18:00.772Z,85.40
2018-11-12T02:20:27.766Z,85.70
2018-11-12T02:22:54.782Z,86.20
2018-11-12T02:25:21.695Z,85.80
2018-11-12T02:27:48.646Z,85.80
2018-11-12T02:30:36.255Z,85.70
2018-11-12T02:33:03.559Z,85.70
2018-11-12T02:35:30.512Z,85.20
2018-11-12T02:37:57.492Z,85.20
2018-11-12T02:40:24.438Z,84.80
2018-11-12T02:42:51.386Z,85.10
2018-11-12T02:45:18.350Z,85.30
2018-11-12T02:47:45.286Z,85.20
2018-11-12T02:50:14.542Z,85.30
2018-11-12T02:52:41.579Z,85.70
2018-11-12T02:55:09.979Z,85.80
2018-11-12T02:57:36.963Z,85.90
2018-11-12T03:00:07.352Z,85.90
2018-11-12T03:02:34.553Z,85.90
2018-11-12T03:05:01.494Z,86.10
2018-11-12T03:07:28.470Z,85.70
2018-11-12T03:09:55.409Z,85.50
2018-11-12T03:12:22.367Z,85.40
2018-11-12T03:14:49.332Z,85.20
2018-11-12T03:17:16.277Z,85.30
2018-11-12T03:19:43.222Z,85.70
2018-11-12T03:22:10.186Z,84.90
2018-11-12T03:24:37.130Z,85.40
2018-11-12T03:27:04.160Z,85.30
2018-11-12T03:29:31.113Z,85.40
2018-11-12T03:31:58.056Z,85.30
2018-11-12T03:34:24.986Z,85.90
2018-11-12T03:36:51.961Z,85.90
2018-11-12T03:39:18.936Z,85.80
2018-11-12T03:41:45.882Z,85.70
2018-11-12T03:44:12.847Z,85.90
2018-11-12T03:46:39.781Z,85.90
2018-11-12T03:49:06.738Z,85.70
2018-11-12T03:51:33.715Z,85.50
2018-11-12T03:54:00.684Z,85.80
2018-11-12T03:56:27.638Z,85.80
2018-11-12T03:58:54.602Z,85.90
2018-11-12T04:01:21.578Z,85.30
2018-11-12T04:03:49.007Z,85.10
2018-11-12T04:06:15.973Z,83.80
2018-11-12T04:08:42.914Z,83.50
2018-11-12T04:11:09.863Z,84.80
2018-11-12T04:13:36.824Z,85.00
2018-11-12T04:16:03.787Z,84.90
2018-11-12T04:18:30.734Z,85.00
2018-11-12T04:20:57.687Z,85.10
2018-11-12T04:23:24.621Z,85.40
2018-11-12T04:25:51.558Z,84.70
2018-11-12T04:28:18.525Z,83.90
2018-11-12T04:30:45.463Z,83.60
2018-11-12T04:33:12.407Z,83.90
2018-11-12T04:35:39.382Z,83.30
2018-11-12T04:38:06.407Z,83.50
2018-11-12T04:40:33.914Z,82.90
2018-11-12T04:43:01.764Z,82.20
2018-11-12T04:45:28.321Z,81.90
2018-11-12T04:47:55.609Z,82.20
2018-11-12T04:50:23.903Z,82.80
2018-11-12T04:52:51.135Z,83.10
2018-11-12T04:55:19.186Z,83.50
2018-11-12T04:57:46.483Z,84.50
2018-11-12T05:00:16.695Z,84.40
2018-11-12T05:02:43.679Z,85.10
2018-11-12T05:05:12.660Z,85.50
2018-11-12T05:07:39.650Z,85.40
2018-11-12T05:10:08.782Z,85.50
2018-11-12T05:12:36.150Z,85.10
2018-11-12T05:15:03.183Z,85.40
2018-11-12T05:17:30.122Z,85.30
2018-11-12T05:19:58.047Z,85.00
2018-11-12T05:22:24.998Z,85.00
2018-11-12T05:24:51.964Z,84.80
2018-11-12T05:27:18.927Z,84.40
2018-11-12T05:29:45.871Z,84.50
2018-11-12T05:32:12.834Z,84.30
2018-11-12T05:34:39.807Z,84.10
2018-11-12T05:37:06.849Z,83.80
2018-11-12T05:39:33.777Z,83.50
2018-11-12T05:42:00.746Z,83.70
2018-11-12T05:44:27.692Z,83.60
2018-11-12T05:46:54.634Z,83.70
2018-11-12T05:49:21.606Z,83.60
2018-11-12T05:51:48.566Z,83.20
2018-11-12T05:54:15.513Z,83.30
2018-11-12T05:56:42.482Z,83.80
2018-11-12T05:59:09.498Z,84.10
2018-11-12T06:01:36.394Z,84.00
2018-11-12T06:04:03.625Z,83.60
2018-11-12T06:06:30.706Z,83.40
2018-11-12T06:08:57.646Z,82.90
2018-11-12T06:11:24.598Z,83.60
2018-11-12T06:13:51.572Z,83.60
2018-11-12T06:16:18.520Z,84.20
2018-11-12T06:18:45.482Z,84.40
2018-11-12T06:21:12.448Z,84.20
2018-11-12T06:23:39.398Z,84.20
2018-11-12T06:26:06.384Z,84.20
2018-11-12T06:28:33.347Z,84.20
2018-11-12T06:31:00.331Z,84.10
2018-11-12T06:33:27.288Z,85.00
2018-11-12T06:35:54.299Z,84.60
2018-11-12T06:38:21.241Z,84.10
2018-11-12T06:40:48.466Z,83.90
2018-11-12T06:43:15.523Z,83.60
2018-11-12T06:45:42.367Z,83.00
2018-11-12T06:48:09.322Z,82.70
2018-11-12T06:50:36.279Z,82.90
2018-11-12T06:53:03.422Z,82.80
2018-11-12T06:55:30.221Z,83.00
2018-11-12T06:57:57.536Z,83.60
2018-11-12T07:00:29.603Z,83.50
2018-11-12T07:02:56.576Z,83.50
2018-11-12T07:05:23.914Z,83.60
2018-11-12T07:07:51.090Z,83.20
2018-11-12T07:10:19.364Z,83.60
2018-11-12T07:12:47.325Z,83.00
2018-11-12T07:15:15.705Z,83.40
2018-11-12T07:17:42.682Z,83.20
2018-11-12T07:20:11.286Z,83.30
2018-11-12T07:22:38.274Z,83.50
2018-11-12T07:25:06.156Z,83.80
2018-11-12T07:27:34.246Z,84.90
2018-11-12T07:30:02.343Z,84.10
2018-11-12T07:32:29.523Z,83.70
2018-11-12T07:34:56.471Z,84.20
2018-11-12T07:37:23.430Z,84.90
2018-11-12T07:39:50.386Z,85.20
2018-11-12T07:42:17.338Z,84.70
2018-11-12T07:44:44.386Z,85.20
2018-11-12T07:47:11.344Z,85.30
2018-11-12T07:49:38.325Z,85.40
2018-11-12T07:52:05.296Z,86.00
2018-11-12T07:54:32.723Z,85.70
2018-11-12T07:56:59.692Z,85.60
2018-11-12T07:59:26.651Z,86.20
2018-11-12T08:01:53.705Z,83.40
2018-11-12T08:04:20.703Z,82.30
2018-11-12T08:06:49.555Z,80.70
2018-11-12T08:09:17.079Z,78.90
2018-11-12T08:11:43.948Z,77.10
2018-11-12T08:14:10.869Z,74.70
2018-11-12T08:16:37.872Z,73.30
2018-11-12T08:19:04.931Z,72.60
2018-11-12T08:21:32.049Z,73.70
2018-11-12T08:23:59.123Z,73.70
2018-11-12T08:26:27.675Z,74.00
2018-11-12T08:28:54.712Z,74.40
2018-11-12T08:31:21.726Z,74.00
2018-11-12T08:33:48.681Z,70.00
2018-11-12T08:36:15.688Z,68.20
2018-11-12T08:38:42.829Z,68.80
2018-11-12T08:41:11.099Z,66.70
2018-11-12T08:43:38.002Z,63.20
2018-11-12T08:46:05.011Z,63.30
2018-11-12T08:48:32.012Z,63.70
2018-11-12T08:50:58.884Z,61.70
2018-11-12T08:53:25.851Z,59.80
2018-11-12T08:55:52.819Z,57.60
2018-11-12T08:58:20.384Z,56.20
2018-11-12T09:00:47.077Z,53.90
2018-11-12T09:03:13.946Z,53.30
2018-11-12T09:05:40.910Z,53.30
2018-11-12T09:08:07.875Z,54.00
2018-11-12T09:10:34.983Z,52.50
2018-11-12T09:13:02.220Z,51.80
2018-11-12T09:15:29.281Z,53.00
2018-11-12T09:17:56.308Z,53.20
2018-11-12T09:20:24.662Z,55.30
2018-11-12T09:22:51.930Z,56.90
2018-11-12T09:25:20.201Z,59.50
2018-11-12T09:27:47.290Z,59.60
2018-11-12T09:30:16.481Z,61.30
2018-11-12T09:32:43.757Z,64.50
2018-11-12T09:35:14.781Z,66.90
2018-11-12T09:37:42.821Z,67.10
2018-11-12T09:40:21.029Z,67.90
2018-11-12T09:42:48.097Z,69.90
2018-11-12T09:45:15.147Z,70.60
2018-11-12T09:47:43.914Z,69.50
2018-11-12T09:50:13.888Z,70.00
2018-11-12T09:52:42.554Z,69.80
2018-11-12T09:55:10.506Z,70.00
2018-11-12T09:57:38.495Z,71.10
2018-11-12T10:00:07.838Z,71.40
2018-11-12T10:02:36.242Z,69.70
2018-11-12T10:05:03.501Z,69.40
2018-11-12T10:07:30.032Z,68.60
2018-11-12T10:09:57.867Z,68.40
2018-11-12T10:12:25.243Z,66.70
2018-11-12T10:14:52.898Z,67.70
2018-11-12T10:17:19.132Z,64.20
2018-11-12T10:19:43.889Z,64.90
2018-11-12T10:22:10.829Z,66.50
2018-11-12T10:24:38.485Z,68.40
2018-11-12T10:27:05.580Z,68.50
2018-11-12T10:29:32.602Z,67.20
2018-11-12T10:31:59.583Z,67.70
2018-11-12T10:34:26.559Z,67.90
2018-11-12T10:36:53.719Z,65.70
2018-11-12T10:39:20.692Z,66.90
2018-11-12T10:41:47.707Z,68.10
2018-11-12T10:44:14.694Z,68.10
2018-11-12T10:46:41.655Z,68.50
2018-11-12T10:49:08.682Z,71.40
2018-11-12T10:51:35.672Z,70.90
2018-11-12T10:54:02.859Z,72.00
2018-11-12T10:56:29.703Z,69.90
2018-11-12T10:58:56.671Z,68.90
2018-11-12T11:01:48.288Z,69.40
2018-11-12T11:04:20.579Z,67.00
2018-11-12T11:06:47.550Z,66.40
2018-11-12T11:09:14.549Z,68.70
2018-11-12T11:11:41.543Z,67.80
2018-11-12T11:14:09.121Z,66.40
2018-11-12T11:16:36.135Z,71.20
2018-11-12T11:19:03.111Z,67.60
2018-11-12T11:21:30.116Z,66.80
2018-11-12T11:23:57.118Z,72.70
2018-11-12T11:26:24.074Z,73.20
2018-11-12T11:28:51.226Z,66.90
2018-11-12T11:31:18.328Z,66.20
2018-11-12T11:33:45.443Z,67.50
2018-11-12T11:36:12.529Z,66.60
2018-11-12T11:38:39.530Z,65.70
2018-11-12T11:41:06.497Z,64.20
2018-11-12T11:43:33.450Z,64.20
2018-11-12T11:46:00.539Z,62.50
2018-11-12T11:48:27.405Z,62.50
2018-11-12T11:50:54.481Z,63.10
2018-11-12T11:53:21.442Z,61.10
2018-11-12T11:55:48.395Z,61.50
2018-11-12T11:58:15.392Z,61.00
2018-11-12T12:00:42.386Z,60.90
2018-11-12T12:03:09.429Z,61.70
2018-11-12T12:05:36.320Z,60.80
2018-11-12T12:08:03.281Z,62.10
2018-11-12T12:10:30.252Z,65.20
2018-11-12T12:12:57.197Z,62.60
2018-11-12T12:15:24.641Z,65.30
2018-11-12T12:17:51.678Z,66.80
2018-11-12T12:20:20.970Z,66.30
2018-11-12T12:22:47.936Z,65.40
2018-11-12T12:25:15.867Z,67.20
2018-11-12T12:27:43.425Z,68.00
2018-11-12T12:30:13.322Z,67.10
2018-11-12T12:32:40.600Z,66.50
2018-11-12T12:35:08.518Z,62.60
2018-11-12T12:37:35.541Z,62.60
2018-11-12T12:40:02.441Z,61.60
2018-11-12T12:42:29.378Z,61.10
2018-11-12T12:44:56.428Z,62.00
2018-11-12T12:47:23.284Z,61.60
2018-11-12T12:49:50.235Z,66.10
2018-11-12T12:52:17.202Z,65.30
2018-11-12T12:54:44.204Z,66.80
2018-11-12T12:57:11.484Z,70.30
2018-11-12T12:59:38.634Z,67.10
2018-11-12T13:02:05.628Z,64.50
2018-11-12T13:04:32.555Z,69.20
2018-11-12T13:06:59.544Z,65.40
2018-11-12T13:09:26.504Z,65.60
2018-11-12T13:11:53.487Z,65.30
2018-11-12T13:14:20.507Z,68.30
2018-11-12T13:16:47.877Z,66.70
2018-11-12T13:19:14.827Z,65.50
2018-11-12T13:21:41.860Z,65.50
2018-11-12T13:24:08.826Z,64.50
2018-11-12T13:26:35.824Z,65.70
2018-11-12T13:29:02.778Z,63.90
2018-11-12T13:31:29.761Z,67.40
2018-11-12T13:33:56.707Z,66.40
2018-11-12T13:36:23.666Z,63.00
2018-11-12T13:38:50.642Z,62.50
2018-11-12T13:41:17.583Z,63.80
2018-11-12T13:43:44.596Z,64.00
2018-11-12T13:46:11.541Z,63.60
2018-11-12T13:48:38.535Z,63.10
2018-11-12T13:51:05.666Z,64.00
2018-11-12T13:53:32.601Z,64.20
2018-11-12T13:55:59.703Z,64.50
2018-11-12T13:58:26.786Z,64.40
2018-11-12T14:00:53.823Z,65.10
2018-11-12T14:03:20.876Z,63.80
2018-11-12T14:05:47.888Z,63.40
2018-11-12T14:08:14.851Z,63.50
2018-11-12T14:10:41.846Z,62.70
2018-11-12T14:13:08.879Z,61.30
2018-11-12T14:15:35.851Z,60.40
2018-11-12T14:18:03.110Z,60.50
2018-11-12T14:20:30.174Z,60.10
2018-11-12T14:22:57.083Z,59.90
2018-11-12T14:25:24.762Z,60.30
2018-11-12T14:27:53.076Z,60.00
2018-11-12T14:30:21.667Z,59.90
2018-11-12T14:32:48.725Z,60.30
2018-11-12T14:35:15.736Z,60.30
2018-11-12T14:37:43.935Z,60.00
2018-11-12T14:40:12.253Z,60.60
2018-11-12T14:42:39.308Z,59.20
2018-11-12T14:45:07.773Z,58.50
2018-11-12T14:47:34.703Z,58.60
2018-11-12T14:50:01.707Z,60.00
2018-11-12T14:52:28.665Z,63.00
2018-11-12T14:54:55.645Z,64.90
2018-11-12T14:57:22.578Z,65.80
2018-11-12T14:59:49.595Z,63.80
2018-11-12T15:02:16.527Z,65.90
2018-11-12T15:04:43.508Z,64.30
2018-11-12T15:07:10.755Z,64.20
2018-11-12T15:09:37.694Z,65.20
2018-11-12T15:12:04.998Z,64.30
2018-11-12T15:14:32.017Z,64.70
2018-11-12T15:16:58.974Z,64.00
2018-11-12T15:19:26.236Z,64.80
2018-11-12T15:21:53.180Z,64.10
2018-11-12T15:24:20.162Z,62.50
2018-11-12T15:26:47.120Z,63.00
2018-11-12T15:29:14.125Z,62.00
2018-11-12T15:31:41.055Z,63.20
2018-11-12T15:34:08.017Z,63.20
2018-11-12T15:36:35.041Z,61.70
2018-11-12T15:39:01.951Z,62.10
2018-11-12T15:41:28.926Z,62.50
2018-11-12T15:43:55.861Z,63.10
2018-11-12T15:46:22.828Z,63.80
2018-11-12T15:48:49.866Z,64.10
2018-11-12T15:51:16.883Z,64.10
2018-11-12T15:53:43.871Z,64.10
2018-11-12T15:56:10.835Z,66.10
2018-11-12T15:58:37.775Z,65.40
2018-11-12T16:01:05.058Z,66.30
2018-11-12T16:03:32.042Z,66.30
2018-11-12T16:05:59.122Z,66.50
2018-11-12T16:08:26.008Z,67.10
2018-11-12T16:10:53.000Z,66.80
2018-11-12T16:13:19.975Z,67.10
2018-11-12T16:15:46.947Z,66.90
2018-11-12T16:18:13.917Z,66.30
2018-11-12T16:20:41.149Z,65.80
2018-11-12T16:23:08.116Z,66.90
2018-11-12T16:25:35.089Z,68.50
2018-11-12T16:28:02.011Z,68.00
2018-11-12T16:30:29.003Z,68.60
2018-11-12T16:32:56.010Z,68.80
2018-11-12T16:35:23.757Z,69.50
2018-11-12T16:37:51.844Z,70.20
2018-11-12T16:40:18.955Z,70.10
2018-11-12T16:42:46.857Z,68.90
2018-11-12T16:45:14.342Z,69.60
2018-11-12T16:47:41.327Z,71.30
2018-11-12T16:50:09.511Z,70.30
2018-11-12T16:52:36.487Z,69.60
2018-11-12T16:55:05.665Z,71.00
2018-11-12T16:57:32.664Z,71.30
2018-11-12T16:59:59.643Z,70.30
2018-11-12T17:02:26.602Z,70.50
2018-11-12T17:04:53.551Z,69.70
2018-11-12T17:07:20.804Z,69.80
2018-11-12T17:09:47.757Z,69.60
2018-11-12T17:12:14.728Z,70.90
2018-11-12T17:14:41.651Z,69.90
2018-11-12T17:17:08.617Z,71.10
2018-11-12T17:19:35.592Z,70.30
2018-11-12T17:22:03.671Z,70.90
2018-11-12T17:24:30.636Z,70.20
2018-11-12T17:26:57.594Z,69.90
2018-11-12T17:29:24.613Z,70.70
2018-11-12T17:31:51.684Z,70.10
2018-11-12T17:34:18.734Z,70.80
2018-11-12T17:36:45.769Z,70.30
2018-11-12T17:39:12.698Z,70.90
2018-11-12T17:41:40.263Z,70.00
2018-11-12T17:44:07.252Z,71.00
2018-11-12T17:46:34.239Z,70.70
2018-11-12T17:49:01.179Z,70.00
2018-11-12T17:51:28.175Z,70.40
2018-11-12T17:53:55.168Z,70.50
2018-11-12T17:56:22.110Z,69.90
2018-11-12T17:58:49.135Z,70.70
2018-11-12T18:01:16.113Z,70.10
2018-11-12T18:03:43.057Z,70.30
2018-11-12T18:06:10.010Z,71.00
2018-11-12T18:08:37.138Z,71.50
2018-11-12T18:11:04.122Z,72.30
2018-11-12T18:13:31.227Z,72.90
2018-11-12T18:15:58.311Z,73.50
2018-11-12T18:18:25.305Z,73.80
2018-11-12T18:20:52.328Z,75.00
2018-11-12T18:23:20.094Z,74.40
2018-11-12T18:25:46.990Z,74.30
2018-11-12T18:28:14.023Z,74.50
2018-11-12T18:30:41.357Z,74.80
2018-11-12T18:33:08.012Z,74.90
2018-11-12T18:35:34.955Z,75.00
2018-11-12T18:38:02.013Z,75.00
2018-11-12T18:40:29.320Z,74.90
2018-11-12T18:42:56.280Z,74.60
2018-11-12T18:45:24.596Z,74.60
2018-11-12T18:47:51.760Z,74.10
2018-11-12T18:50:21.315Z,74.20
2018-11-12T18:52:48.445Z,74.30
2018-11-12T18:55:15.279Z,74.40
2018-11-12T18:57:43.017Z,74.40
2018-11-12T19:00:11.925Z,74.40
2018-11-12T19:02:39.177Z,74.60
2018-11-12T19:05:09.478Z,74.70
2018-11-12T19:07:36.851Z,75.00
2018-11-12T19:10:05.507Z,75.00
2018-11-12T19:12:32.537Z,74.90
2018-11-12T19:14:59.569Z,74.50
2018-11-12T19:17:26.614Z,74.40
2018-11-12T19:19:53.646Z,74.70
2018-11-12T19:22:20.713Z,74.60
2018-11-12T19:24:49.150Z,74.10
2018-11-12T19:27:16.149Z,74.30
2018-11-12T19:29:43.062Z,74.00
2018-11-12T19:32:10.165Z,73.40
2018-11-12T19:34:37.224Z,73.00
2018-11-12T19:37:05.099Z,72.90
2018-11-12T19:39:32.179Z,73.10
2018-11-12T19:41:59.157Z,74.00
2018-11-12T19:44:26.177Z,74.50
2018-11-12T19:46:53.168Z,75.30
2018-11-12T19:49:20.291Z,75.60
2018-11-12T19:51:47.325Z,75.20
2018-11-12T19:54:14.388Z,75.80
2018-11-12T19:56:41.408Z,75.80
2018-11-12T19:59:08.587Z,74.10
2018-11-12T20:01:35.570Z,74.70
2018-11-12T20:04:02.664Z,73.70
2018-11-12T20:06:29.635Z,73.30
2018-11-12T20:08:56.635Z,74.10
2018-11-12T20:11:23.627Z,74.40
2018-11-12T20:13:50.643Z,74.90
2018-11-12T20:16:17.768Z,75.30
2018-11-12T20:18:44.821Z,75.40
2018-11-12T20:21:11.931Z,76.20
2018-11-12T20:23:38.985Z,76.40
2018-11-12T20:26:06.567Z,74.80
2018-11-12T20:28:33.610Z,75.30
2018-11-12T20:31:00.619Z,76.60
2018-11-12T20:33:27.608Z,77.30
2018-11-12T20:35:54.780Z,77.50
2018-11-12T20:38:21.777Z,77.80
2018-11-12T20:40:49.499Z,76.60
2018-11-12T20:43:16.575Z,76.70
2018-11-12T20:45:43.620Z,76.30
2018-11-12T20:48:10.790Z,76.20
2018-11-12T20:50:37.708Z,76.00
2018-11-12T20:53:05.105Z,75.40
2018-11-12T20:55:32.116Z,75.30
2018-11-12T20:57:59.385Z,75.00
2018-11-12T21:00:27.483Z,75.20
2018-11-12T21:02:54.926Z,76.00
2018-11-12T21:05:23.438Z,77.00
2018-11-12T21:07:50.430Z,75.90
2018-11-12T21:10:18.226Z,76.90
2018-11-12T21:12:45.937Z,77.90
2018-11-12T21:15:13.986Z,78.40
2018-11-12T21:17:41.049Z,78.40
2018-11-12T21:20:10.351Z,76.10
2018-11-12T21:22:37.294Z,75.70
2018-11-12T21:25:05.753Z,75.70
2018-11-12T21:27:33.031Z,75.20
2018-11-12T21:29:59.965Z,75.10
2018-11-12T21:32:26.913Z,75.30
2018-11-12T21:34:53.867Z,75.40
2018-11-12T21:37:20.795Z,75.10
2018-11-12T21:39:47.743Z,74.60
2018-11-12T21:42:14.770Z,74.60
2018-11-12T21:44:41.711Z,74.20
2018-11-12T21:47:08.658Z,74.50
2018-11-12T21:49:35.637Z,74.00
2018-11-12T21:52:02.562Z,74.10
2018-11-12T21:54:29.498Z,74.00
2018-11-12T21:57:04.126Z,74.90
2018-11-12T21:59:31.124Z,75.40
2018-11-12T22:01:58.093Z,77.20
2018-11-12T22:04:25.057Z,78.30
2018-11-12T22:06:52.015Z,76.90
2018-11-12T22:09:19.043Z,77.50
2018-11-12T22:11:46.025Z,77.80
2018-11-12T22:14:13.033Z,78.00
2018-11-12T22:16:40.017Z,78.60
2018-11-12T22:19:07.016Z,77.20
2018-11-12T22:21:34.030Z,77.20
2018-11-12T22:24:01.058Z,76.60
2018-11-12T22:26:28.020Z,76.60
2018-11-12T22:28:55.356Z,78.80
2018-11-12T22:31:22.351Z,79.00
2018-11-12T22:33:49.358Z,80.80
2018-11-12T22:36:16.348Z,82.20
2018-11-12T22:38:43.368Z,81.50
2018-11-12T22:41:10.310Z,80.50
2018-11-12T22:43:37.274Z,81.80
2018-11-12T22:46:04.390Z,82.60
2018-11-12T22:48:31.341Z,82.70
2018-11-12T22:50:58.276Z,82.70
2018-11-12T22:53:25.217Z,81.90
2018-11-12T22:55:52.187Z,80.90
2018-11-12T22:58:19.219Z,80.70
2018-11-12T23:00:47.399Z,80.70
2018-11-12T23:03:14.401Z,81.00
2018-11-12T23:05:41.335Z,81.80
2018-11-12T23:08:08.293Z,82.10
2018-11-12T23:10:35.270Z,82.80
2018-11-12T23:13:02.253Z,83.10
2018-11-12T23:15:29.242Z,82.90
2018-11-12T23:17:56.195Z,82.90
2018-11-12T23:20:24.269Z,82.90
2018-11-12T23:22:51.771Z,83.20
2018-11-12T23:25:18.794Z,83.10
2018-11-12T23:27:46.276Z,82.80
2018-11-12T23:30:14.632Z,82.30
2018-11-12T23:32:41.598Z,81.80
2018-11-12T23:35:13.943Z,81.40
2018-11-12T23:37:41.602Z,81.30
2018-11-12T23:40:09.487Z,82.00
2018-11-12T23:42:36.436Z,83.20
2018-11-12T23:45:03.510Z,82.80
2018-11-12T23:47:30.557Z,82.90
2018-11-12T23:49:57.514Z,83.30
2018-11-12T23:52:24.462Z,82.90
2018-11-12T23:54:51.523Z,83.60
2018-11-12T23:57:18.463Z,83.50
2018-11-12T23:59:45.399Z,82.30
